createdAt,value
2023-06-11T00:00:13.133Z,21.46
2023-06-11T00:02:43.187Z,21.47
2023-06-11T00:05:11.814Z,21.39
2023-06-11T00:07:40.587Z,21.45
2023-06-11T00:10:09.696Z,21.38
2023-06-11T00:12:37.700Z,21.34
2023-06-11T00:15:05.544Z,21.29
2023-06-11T00:17:34.398Z,21.34
2023-06-11T00:20:04.413Z,21.25
2023-06-11T00:22:33.052Z,21.17
2023-06-11T00:25:00.661Z,21.22
2023-06-11T00:27:28.252Z,21.17
2023-06-11T00:29:56.278Z,21.14
2023-06-11T00:32:24.117Z,21.11
2023-06-11T00:34:51.723Z,21.11
2023-06-11T00:37:19.282Z,21.18
2023-06-11T00:39:46.889Z,21.15
2023-06-11T00:42:14.536Z,21.15
2023-06-11T00:44:42.718Z,21.09
2023-06-11T00:47:11.171Z,21.11
2023-06-11T00:49:38.817Z,21.15
2023-06-11T00:52:11.640Z,21.03
2023-06-11T00:54:39.500Z,20.98
2023-06-11T00:57:08.357Z,20.97
2023-06-11T00:59:36.859Z,20.81
2023-06-11T01:02:22.479Z,20.84
2023-06-11T01:04:54.420Z,20.84
2023-06-11T01:07:23.846Z,20.79
2023-06-11T01:09:52.649Z,20.83
2023-06-11T01:12:20.273Z,20.74
2023-06-11T01:14:47.788Z,20.80
2023-06-11T01:17:43.186Z,20.70
2023-06-11T01:20:26.361Z,20.71
2023-06-11T01:23:32.539Z,20.81
2023-06-11T01:26:24.415Z,20.72
2023-06-11T01:28:57.428Z,20.74
2023-06-11T01:31:30.659Z,20.69
2023-06-11T01:33:59.316Z,20.69
2023-06-11T01:36:30.927Z,20.59
2023-06-11T01:38:59.944Z,20.61
2023-06-11T01:41:28.334Z,20.61
2023-06-11T01:43:56.089Z,20.49
2023-06-11T01:46:23.688Z,20.64
2023-06-11T01:48:51.285Z,20.60
2023-06-11T01:51:18.825Z,20.60
2023-06-11T01:53:46.380Z,20.54
2023-06-11T01:56:13.924Z,20.70
2023-06-11T01:58:41.494Z,20.73
2023-06-11T02:01:09.517Z,20.73
2023-06-11T02:03:37.151Z,20.62
2023-06-11T02:06:04.808Z,20.74
2023-06-11T02:08:32.344Z,20.79
2023-06-11T02:10:59.934Z,20.80
2023-06-11T02:13:31.844Z,20.80
2023-06-11T02:16:00.525Z,20.76
2023-06-11T02:18:28.139Z,20.67
2023-06-11T02:20:55.721Z,20.71
2023-06-11T02:23:23.368Z,20.72
2023-06-11T02:25:50.913Z,20.64
2023-06-11T02:28:18.571Z,20.67
2023-06-11T02:30:46.151Z,20.54
2023-06-11T02:33:13.761Z,20.56
2023-06-11T02:35:41.363Z,20.57
2023-06-11T02:38:09.015Z,20.61
2023-06-11T02:40:36.577Z,20.62
2023-06-11T02:43:04.097Z,20.58
2023-06-11T02:45:31.667Z,20.50
2023-06-11T02:47:59.207Z,20.48
2023-06-11T02:50:26.733Z,20.41
2023-06-11T02:52:54.327Z,20.34
2023-06-11T02:55:21.889Z,20.39
2023-06-11T02:57:49.428Z,20.29
2023-06-11T03:00:17.185Z,20.16
2023-06-11T03:02:44.873Z,20.20
2023-06-11T03:05:12.695Z,20.21
2023-06-11T03:07:40.498Z,20.10
2023-06-11T03:10:08.634Z,20.16
2023-06-11T03:12:36.200Z,20.14
2023-06-11T03:15:04.377Z,20.14
2023-06-11T03:17:31.898Z,20.10
2023-06-11T03:19:59.498Z,20.08
2023-06-11T03:22:27.052Z,20.02
2023-06-11T03:24:54.573Z,19.99
2023-06-11T03:27:22.123Z,20.02
2023-06-11T03:29:49.722Z,19.89
2023-06-11T03:32:17.270Z,19.95
2023-06-11T03:34:44.948Z,20.08
2023-06-11T03:37:12.566Z,20.08
2023-06-11T03:39:40.121Z,20.10
2023-06-11T03:42:07.954Z,20.02
2023-06-11T03:44:35.496Z,20.03
2023-06-11T03:47:03.181Z,20.11
2023-06-11T03:49:30.798Z,20.12
2023-06-11T03:51:58.586Z,20.13
2023-06-11T03:54:26.176Z,20.03
2023-06-11T03:56:53.811Z,19.98
2023-06-11T03:59:21.397Z,19.88
2023-06-11T04:01:48.980Z,19.84
2023-06-11T04:04:16.583Z,19.96
2023-06-11T04:06:44.438Z,20.05
2023-06-11T04:09:11.996Z,19.91
2023-06-11T04:11:39.541Z,19.94
2023-06-11T04:14:08.010Z,19.91
2023-06-11T04:16:35.574Z,20.13
2023-06-11T04:19:03.194Z,20.02
2023-06-11T04:21:30.800Z,20.06
2023-06-11T04:23:58.484Z,20.08
2023-06-11T04:26:26.755Z,20.25
2023-06-11T04:28:54.511Z,20.21
2023-06-11T04:31:22.239Z,20.49
2023-06-11T04:33:52.155Z,20.53
2023-06-11T04:36:25.757Z,20.46
2023-06-11T04:38:53.798Z,20.72
2023-06-11T04:41:24.406Z,20.53
2023-06-11T04:43:53.368Z,20.92
2023-06-11T04:46:21.318Z,20.77
2023-06-11T04:48:51.518Z,21.03
2023-06-11T04:51:21.700Z,21.28
2023-06-11T04:53:53.340Z,21.31
2023-06-11T04:56:20.985Z,21.32
2023-06-11T04:58:50.448Z,21.49
2023-06-11T05:01:18.923Z,21.40
2023-06-11T05:03:48.989Z,21.67
2023-06-11T05:06:22.488Z,21.78
2023-06-11T05:08:50.102Z,21.86
2023-06-11T05:11:17.798Z,21.82
2023-06-11T05:13:45.451Z,21.64
2023-06-11T05:16:13.818Z,21.54
2023-06-11T05:18:41.437Z,21.76
2023-06-11T05:21:10.312Z,21.78
2023-06-11T05:23:40.263Z,22.17
2023-06-11T05:26:13.192Z,22.11
2023-06-11T05:28:41.351Z,22.11
2023-06-11T05:31:12.532Z,22.13
2023-06-11T05:33:40.103Z,22.04
2023-06-11T05:36:07.744Z,22.30
2023-06-11T05:38:35.298Z,22.22
2023-06-11T05:41:03.676Z,22.26
2023-06-11T05:43:31.242Z,22.55
2023-06-11T05:45:58.802Z,22.50
2023-06-11T05:48:28.860Z,22.62
2023-06-11T05:50:56.508Z,22.51
2023-06-11T05:53:24.090Z,22.80
2023-06-11T05:55:54.537Z,22.57
2023-06-11T05:58:23.350Z,23.15
2023-06-11T06:00:51.262Z,23.41
2023-06-11T06:03:19.015Z,23.59
2023-06-11T06:05:46.694Z,23.50
2023-06-11T06:08:14.229Z,23.65
2023-06-11T06:10:41.834Z,23.60
2023-06-11T06:13:09.382Z,23.71
2023-06-11T06:15:36.968Z,23.86
2023-06-11T06:18:05.684Z,23.88
2023-06-11T06:20:33.457Z,23.96
2023-06-11T06:23:00.998Z,24.18
2023-06-11T06:25:28.905Z,23.83
2023-06-11T06:27:56.496Z,24.26
2023-06-11T06:30:24.060Z,24.44
2023-06-11T06:32:51.762Z,24.58
2023-06-11T06:35:19.394Z,24.43
2023-06-11T06:37:47.069Z,24.71
2023-06-11T06:40:14.657Z,24.43
2023-06-11T06:42:42.167Z,25.02
2023-06-11T06:45:10.696Z,24.82
2023-06-11T06:47:38.627Z,24.97
2023-06-11T06:50:07.250Z,25.04
2023-06-11T06:52:34.912Z,25.09
2023-06-11T06:55:02.590Z,25.20
2023-06-11T06:57:30.128Z,25.58
2023-06-11T06:59:57.702Z,25.50
2023-06-11T07:02:25.247Z,25.63
2023-06-11T07:04:52.869Z,26.06
2023-06-11T07:07:20.453Z,25.63
2023-06-11T07:09:48.156Z,25.64
2023-06-11T07:12:15.801Z,26.06
2023-06-11T07:14:43.389Z,26.16
2023-06-11T07:17:10.948Z,25.86
2023-06-11T07:19:38.644Z,26.21
2023-06-11T07:22:09.015Z,26.04
2023-06-11T07:24:37.877Z,26.42
2023-06-11T07:27:06.007Z,26.80
2023-06-11T07:29:33.885Z,26.39
2023-06-11T07:32:01.537Z,26.24
2023-06-11T07:34:29.198Z,26.66
2023-06-11T07:36:56.817Z,26.83
2023-06-11T07:39:24.758Z,27.05
2023-06-11T07:41:52.412Z,26.81
2023-06-11T07:44:20.023Z,26.45
2023-06-11T07:46:47.631Z,26.88
2023-06-11T07:49:15.238Z,27.39
2023-06-11T07:51:43.536Z,27.41
2023-06-11T07:54:11.189Z,27.47
2023-06-11T07:56:38.736Z,27.57
2023-06-11T07:59:06.318Z,27.65
2023-06-11T08:01:33.909Z,27.73
2023-06-11T08:04:01.512Z,27.55
2023-06-11T08:06:29.196Z,27.96
2023-06-11T08:08:57.462Z,28.23
2023-06-11T08:11:25.471Z,28.18
2023-06-11T08:13:53.305Z,28.48
2023-06-11T08:16:21.064Z,29.11
2023-06-11T08:18:48.699Z,29.18
2023-06-11T08:21:17.548Z,29.44
2023-06-11T08:23:45.154Z,29.77
2023-06-11T08:26:13.434Z,29.77
2023-06-11T08:28:41.128Z,29.76
2023-06-11T08:31:08.725Z,29.90
2023-06-11T08:33:36.352Z,30.23
2023-06-11T08:36:04.426Z,30.23
2023-06-11T08:38:31.963Z,31.10
2023-06-11T08:40:59.526Z,31.10
2023-06-11T08:43:27.396Z,30.96
2023-06-11T08:45:55.036Z,31.11
2023-06-11T08:48:22.845Z,31.51
2023-06-11T08:50:51.742Z,30.82
2023-06-11T08:53:19.277Z,30.97
2023-06-11T08:55:46.996Z,30.94
2023-06-11T08:58:16.029Z,32.02
2023-06-11T09:00:46.594Z,31.60
2023-06-11T09:03:16.255Z,31.08
2023-06-11T09:05:46.306Z,31.88
2023-06-11T09:08:13.937Z,31.90
2023-06-11T09:10:52.182Z,32.10
2023-06-11T09:13:20.842Z,31.69
2023-06-11T09:15:53.959Z,31.78
2023-06-11T09:18:23.776Z,32.39
2023-06-11T09:20:53.577Z,31.59
2023-06-11T09:23:35.305Z,31.77
2023-06-11T09:26:04.268Z,31.63
2023-06-11T09:28:34.041Z,32.24
2023-06-11T09:31:04.432Z,30.70
2023-06-11T09:33:34.644Z,31.84
2023-06-11T09:36:02.736Z,32.06
2023-06-11T09:38:34.632Z,31.34
2023-06-11T09:41:02.576Z,31.97
2023-06-11T09:43:30.162Z,31.71
2023-06-11T09:45:57.860Z,30.91
2023-06-11T09:48:27.156Z,31.03
2023-06-11T09:50:55.845Z,32.22
2023-06-11T09:53:25.138Z,32.39
2023-06-11T09:58:24.623Z,32.75
2023-06-11T10:00:53.941Z,32.06
2023-06-11T10:03:21.928Z,32.75
2023-06-11T10:05:49.945Z,33.43
2023-06-11T10:08:24.567Z,34.05
2023-06-11T10:11:02.652Z,33.95
2023-06-11T10:13:31.976Z,34.26
2023-06-11T10:16:03.309Z,34.11
2023-06-11T10:18:31.706Z,34.47
2023-06-11T10:21:06.359Z,34.62
2023-06-11T10:23:42.032Z,33.60
2023-06-11T10:26:11.750Z,33.84
2023-06-11T10:28:52.300Z,33.32
2023-06-11T10:31:31.515Z,33.69
2023-06-11T10:34:03.545Z,33.75
2023-06-11T10:36:36.538Z,33.49
2023-06-11T10:39:26.559Z,33.42
2023-06-11T10:42:06.968Z,33.97
2023-06-11T10:44:42.881Z,34.74
2023-06-11T10:47:10.548Z,34.72
2023-06-11T10:49:38.214Z,34.66
2023-06-11T10:52:06.460Z,35.08
2023-06-11T10:54:36.201Z,34.00
2023-06-11T10:57:05.010Z,33.93
2023-06-11T10:59:33.091Z,34.55
2023-06-11T11:02:00.829Z,35.49
2023-06-11T11:04:29.439Z,35.74
2023-06-11T11:07:09.229Z,34.90
2023-06-11T11:09:37.277Z,35.62
2023-06-11T11:12:05.271Z,35.41
2023-06-11T11:14:32.999Z,35.56
2023-06-11T11:17:02.595Z,34.89
2023-06-11T11:19:31.581Z,34.93
2023-06-11T11:21:59.212Z,35.22
2023-06-11T11:24:26.866Z,35.48
2023-06-11T11:26:54.440Z,35.87
2023-06-11T11:29:22.047Z,36.32
2023-06-11T11:31:49.970Z,35.18
2023-06-11T11:34:19.363Z,33.41
2023-06-11T11:36:47.736Z,34.16
2023-06-11T11:39:16.670Z,34.53
2023-06-11T11:41:50.376Z,35.22
2023-06-11T11:44:19.213Z,35.73
2023-06-11T11:46:46.907Z,35.92
2023-06-11T11:49:14.827Z,36.16
2023-06-11T11:51:46.740Z,36.21
2023-06-11T11:54:15.920Z,36.07
2023-06-11T11:56:43.792Z,34.94
2023-06-11T11:59:24.654Z,35.38
2023-06-11T12:02:02.040Z,34.34
2023-06-11T12:04:52.586Z,34.74
2023-06-11T12:07:21.408Z,33.50
2023-06-11T12:09:48.990Z,33.47
2023-06-11T12:12:16.553Z,34.37
2023-06-11T12:14:44.140Z,35.24
2023-06-11T12:17:12.394Z,35.06
2023-06-11T12:19:40.344Z,35.46
2023-06-11T12:22:08.235Z,35.57
2023-06-11T12:24:37.492Z,35.58
2023-06-11T12:27:09.510Z,35.83
2023-06-11T12:29:39.876Z,36.36
2023-06-11T12:32:14.446Z,35.98
2023-06-11T12:34:42.122Z,35.60
2023-06-11T12:37:11.372Z,34.77
2023-06-11T12:39:38.955Z,36.28
2023-06-11T12:42:07.586Z,34.80
2023-06-11T12:44:35.146Z,35.40
2023-06-11T12:47:02.743Z,35.60
2023-06-11T12:49:32.552Z,36.02
2023-06-11T12:52:01.117Z,35.90
2023-06-11T12:54:28.774Z,36.37
2023-06-11T12:56:56.478Z,36.44
2023-06-11T12:59:24.420Z,36.66
2023-06-11T13:01:52.554Z,36.17
2023-06-11T13:04:20.263Z,37.62
2023-06-11T13:06:47.812Z,36.81
2023-06-11T13:09:15.945Z,35.64
2023-06-11T13:11:44.072Z,36.10
2023-06-11T13:14:11.823Z,36.75
2023-06-11T13:16:39.352Z,35.35
2023-06-11T13:19:06.858Z,36.40
2023-06-11T13:21:34.493Z,37.00
2023-06-11T13:24:04.556Z,37.25
2023-06-11T13:26:33.512Z,36.90
2023-06-11T13:29:01.053Z,35.80
2023-06-11T13:31:28.703Z,36.60
2023-06-11T13:33:56.371Z,37.51
2023-06-11T13:36:24.337Z,37.03
2023-06-11T13:38:52.058Z,35.08
2023-06-11T13:41:19.659Z,36.27
2023-06-11T13:43:47.210Z,36.17
2023-06-11T13:46:14.943Z,37.26
2023-06-11T13:48:42.603Z,36.52
2023-06-11T13:51:11.291Z,35.54
2023-06-11T13:53:39.010Z,35.98
2023-06-11T13:56:06.598Z,35.40
2023-06-11T13:58:34.194Z,34.24
2023-06-11T14:01:02.111Z,34.23
2023-06-11T14:03:29.785Z,34.67
2023-06-11T14:05:57.394Z,36.33
2023-06-11T14:08:25.047Z,35.85
2023-06-11T14:10:53.882Z,35.88
2023-06-11T14:13:21.626Z,34.99
2023-06-11T14:15:49.237Z,35.26
2023-06-11T14:18:16.886Z,35.04
2023-06-11T14:20:44.483Z,35.43
2023-06-11T14:23:12.139Z,35.44
2023-06-11T14:25:41.121Z,36.44
2023-06-11T14:28:08.675Z,36.64
2023-06-11T14:30:36.276Z,36.32
2023-06-11T14:33:03.890Z,35.86
2023-06-11T14:35:31.505Z,34.74
2023-06-11T14:38:01.365Z,34.80
2023-06-11T14:40:30.761Z,34.36
2023-06-11T14:42:58.714Z,33.90
2023-06-11T14:45:26.330Z,34.15
2023-06-11T14:47:53.924Z,33.36
2023-06-11T14:50:21.853Z,33.36
2023-06-11T14:52:49.611Z,32.93
2023-06-11T14:55:17.341Z,32.87
2023-06-11T14:57:44.938Z,32.21
2023-06-11T15:00:13.312Z,32.34
2023-06-11T15:02:41.170Z,32.83
2023-06-11T15:05:09.295Z,32.83
2023-06-11T15:07:36.822Z,33.25
2023-06-11T15:10:05.961Z,33.01
2023-06-11T15:12:33.667Z,33.47
2023-06-11T15:15:02.229Z,33.31
2023-06-11T15:17:30.975Z,32.93
2023-06-11T15:19:59.976Z,32.43
2023-06-11T15:22:27.976Z,32.62
2023-06-11T15:24:56.093Z,32.39
2023-06-11T15:27:23.734Z,33.01
2023-06-11T15:29:51.309Z,32.89
2023-06-11T15:32:21.018Z,32.55
2023-06-11T15:34:49.277Z,32.93
2023-06-11T15:37:16.918Z,32.38
2023-06-11T15:39:51.803Z,32.39
2023-06-11T15:42:20.200Z,32.43
2023-06-11T15:44:49.651Z,32.53
2023-06-11T15:47:17.937Z,32.54
2023-06-11T15:49:45.569Z,32.50
2023-06-11T15:52:13.175Z,32.73
2023-06-11T15:54:41.048Z,32.63
2023-06-11T15:57:08.967Z,32.72
2023-06-11T15:59:36.788Z,32.69
2023-06-11T16:02:04.511Z,32.69
2023-06-11T16:04:32.977Z,32.43
2023-06-11T16:07:01.363Z,32.17
2023-06-11T16:09:29.690Z,32.18
2023-06-11T16:11:57.460Z,32.41
2023-06-11T16:14:25.068Z,32.89
2023-06-11T16:16:52.706Z,32.71
2023-06-11T16:19:20.600Z,32.22
2023-06-11T16:21:48.183Z,32.34
2023-06-11T16:24:15.843Z,32.69
2023-06-11T16:26:43.615Z,32.29
2023-06-11T16:29:11.515Z,32.30
2023-06-11T16:31:41.865Z,31.92
2023-06-11T16:34:11.177Z,32.54
2023-06-11T16:36:38.759Z,32.46
2023-06-11T16:39:21.871Z,32.24
2023-06-11T16:41:53.917Z,31.87
2023-06-11T16:44:21.536Z,31.76
2023-06-11T16:46:49.284Z,31.77
2023-06-11T16:49:18.709Z,31.66
2023-06-11T16:51:46.783Z,31.69
2023-06-11T16:54:17.387Z,31.76
2023-06-11T16:56:46.285Z,31.90
2023-06-11T16:59:13.814Z,31.92
2023-06-11T17:01:41.425Z,31.78
2023-06-11T17:04:09.061Z,31.43
2023-06-11T17:06:36.720Z,31.74
2023-06-11T17:09:04.521Z,31.61
2023-06-11T17:11:32.204Z,31.91
2023-06-11T17:13:59.803Z,31.79
2023-06-11T17:16:27.434Z,31.49
2023-06-11T17:18:57.402Z,31.24
2023-06-11T17:21:26.793Z,31.24
2023-06-11T17:23:58.225Z,31.49
2023-06-11T17:26:28.088Z,31.56
2023-06-11T17:28:55.746Z,31.65
2023-06-11T17:31:23.403Z,31.42
2023-06-11T17:33:51.037Z,31.47
2023-06-11T17:36:18.709Z,31.16
2023-06-11T17:38:46.276Z,31.07
2023-06-11T17:41:13.896Z,31.04
2023-06-11T17:43:41.468Z,30.99
2023-06-11T17:46:12.617Z,30.92
2023-06-11T17:48:40.375Z,30.84
2023-06-11T17:51:07.933Z,30.95
2023-06-11T17:53:35.490Z,30.97
2023-06-11T17:56:03.083Z,31.05
2023-06-11T17:58:30.635Z,30.90
2023-06-11T18:00:58.262Z,31.07
2023-06-11T18:03:25.868Z,30.85
2023-06-11T18:05:53.503Z,30.89
2023-06-11T18:08:21.081Z,30.54
2023-06-11T18:10:48.644Z,30.71
2023-06-11T18:13:16.300Z,30.62
2023-06-11T18:15:44.136Z,30.53
2023-06-11T18:18:12.278Z,30.51
2023-06-11T18:20:39.919Z,30.45
2023-06-11T18:23:07.541Z,30.43
2023-06-11T18:25:35.209Z,30.17
2023-06-11T18:28:02.861Z,30.25
2023-06-11T18:30:30.440Z,30.22
2023-06-11T18:32:57.994Z,30.15
2023-06-11T18:35:25.721Z,30.17
2023-06-11T18:37:53.308Z,29.91
2023-06-11T18:40:20.959Z,29.96
2023-06-11T18:42:48.560Z,29.84
2023-06-11T18:45:16.587Z,29.91
2023-06-11T18:47:44.197Z,29.86
2023-06-11T18:50:12.429Z,29.81
2023-06-11T18:52:40.490Z,29.73
2023-06-11T18:55:08.425Z,29.57
2023-06-11T18:57:36.110Z,29.63
2023-06-11T19:00:04.551Z,29.59
2023-06-11T19:02:32.171Z,29.40
2023-06-11T19:05:00.354Z,29.48
2023-06-11T19:07:27.976Z,29.45
2023-06-11T19:09:56.065Z,29.37
2023-06-11T19:12:23.900Z,29.21
2023-06-11T19:14:51.738Z,29.06
2023-06-11T19:17:19.700Z,29.11
2023-06-11T19:19:47.308Z,28.93
2023-06-11T19:22:14.920Z,29.05
2023-06-11T19:24:42.577Z,29.00
2023-06-11T19:27:10.134Z,28.95
2023-06-11T19:29:37.706Z,28.82
2023-06-11T19:32:05.621Z,28.72
2023-06-11T19:34:33.208Z,28.76
2023-06-11T19:37:00.793Z,28.49
2023-06-11T19:39:28.315Z,28.36
2023-06-11T19:41:55.880Z,28.28
2023-06-11T19:44:23.570Z,28.28
2023-06-11T19:46:51.168Z,28.09
2023-06-11T19:49:18.707Z,28.01
2023-06-11T19:51:46.291Z,27.94
2023-06-11T19:54:14.957Z,27.82
2023-06-11T19:56:43.600Z,27.71
2023-06-11T19:59:15.046Z,27.70
2023-06-11T20:01:42.820Z,27.77
2023-06-11T20:04:10.637Z,27.80
2023-06-11T20:06:38.185Z,27.75
2023-06-11T20:09:06.697Z,27.66
2023-06-11T20:11:34.715Z,27.50
2023-06-11T20:14:02.432Z,27.45
2023-06-11T20:16:30.049Z,27.29
2023-06-11T20:18:57.689Z,27.32
2023-06-11T20:21:25.483Z,27.22
2023-06-11T20:23:53.112Z,27.31
2023-06-11T20:26:20.698Z,27.19
2023-06-11T20:28:48.250Z,27.14
2023-06-11T20:31:15.828Z,27.05
2023-06-11T20:33:43.386Z,27.03
2023-06-11T20:36:10.928Z,26.82
2023-06-11T20:38:38.428Z,26.90
2023-06-11T20:41:06.254Z,26.91
2023-06-11T20:43:33.769Z,26.81
2023-06-11T20:46:08.577Z,26.80
2023-06-11T20:48:39.612Z,26.74
2023-06-11T20:51:07.227Z,26.69
2023-06-11T20:53:35.007Z,26.66
2023-06-11T20:56:03.680Z,26.65
2023-06-11T20:58:31.418Z,26.56
2023-06-11T21:00:59.061Z,26.60
2023-06-11T21:03:26.669Z,26.50
2023-06-11T21:05:55.647Z,26.46
2023-06-11T21:08:23.287Z,26.42
2023-06-11T21:10:50.940Z,26.41
2023-06-11T21:13:18.667Z,26.28
2023-06-11T21:15:46.252Z,26.37
2023-06-11T21:18:13.821Z,26.21
2023-06-11T21:20:41.452Z,25.91
2023-06-11T21:23:09.077Z,26.15
2023-06-11T21:25:36.652Z,25.95
2023-06-11T21:28:04.378Z,26.01
2023-06-11T21:30:31.895Z,25.93
2023-06-11T21:32:59.468Z,25.73
2023-06-11T21:35:27.075Z,25.73
2023-06-11T21:37:54.671Z,25.65
2023-06-11T21:40:22.329Z,25.53
2023-06-11T21:42:49.880Z,25.50
2023-06-11T21:45:17.523Z,25.42
2023-06-11T21:47:45.103Z,25.30
2023-06-11T21:50:14.147Z,25.26
2023-06-11T21:52:42.339Z,25.23
2023-06-11T21:55:10.163Z,25.18
2023-06-11T21:57:37.833Z,25.26
2023-06-11T22:00:12.596Z,25.19
2023-06-11T22:02:42.519Z,25.17
2023-06-11T22:05:13.311Z,25.14
2023-06-11T22:07:41.690Z,24.94
2023-06-11T22:10:10.436Z,24.99
2023-06-11T22:12:42.872Z,24.82
2023-06-11T22:15:14.266Z,24.94
2023-06-11T22:17:42.012Z,24.81
2023-06-11T22:20:11.825Z,24.83
2023-06-11T22:22:42.036Z,24.80
2023-06-11T22:25:11.980Z,24.86
2023-06-11T22:27:41.981Z,24.80
2023-06-11T22:30:11.933Z,24.80
2023-06-11T22:32:39.924Z,24.75
2023-06-11T22:35:07.951Z,24.65
2023-06-11T22:37:36.984Z,24.63
2023-06-11T22:40:07.009Z,24.59
2023-06-11T22:42:35.153Z,24.55
2023-06-11T22:45:02.908Z,24.62
2023-06-11T22:47:33.943Z,24.59
2023-06-11T22:50:02.129Z,24.51
2023-06-11T22:52:30.853Z,24.57
2023-06-11T22:54:58.768Z,24.50
2023-06-11T22:57:26.436Z,24.57
2023-06-11T22:59:53.995Z,24.49
2023-06-11T23:02:21.691Z,24.43
2023-06-11T23:04:51.368Z,24.42
2023-06-11T23:07:19.299Z,24.35
2023-06-11T23:09:46.893Z,24.39
2023-06-11T23:12:14.669Z,24.23
2023-06-11T23:14:42.233Z,24.27
2023-06-11T23:17:10.328Z,24.29
2023-06-11T23:19:38.587Z,24.18
2023-06-11T23:22:08.753Z,24.23
2023-06-11T23:24:40.757Z,24.21
2023-06-11T23:27:10.525Z,24.13
2023-06-11T23:29:38.433Z,24.15
2023-06-11T23:32:06.830Z,24.15
2023-06-11T23:34:35.078Z,24.06
2023-06-11T23:37:02.626Z,24.09
2023-06-11T23:39:30.515Z,23.95
2023-06-11T23:41:58.024Z,23.98
2023-06-11T23:44:25.550Z,24.03
2023-06-11T23:46:53.095Z,23.95
2023-06-11T23:49:20.650Z,23.86
2023-06-11T23:51:48.452Z,23.92
2023-06-11T23:54:16.135Z,23.77
2023-06-11T23:56:43.759Z,23.77
2023-06-11T23:59:11.725Z,23.68
